Trig Lind — WC8177 — position and weather

sailwx.info

Track history (hours):
 
Tides and Currents Weather Stations Pressure Air Temp Water Temp Dewpoint Dewpoint Depression Visibility Wind Speed Wind Dir Waves Ship Positions

Trig Lind

Owner: JERICO PRODUCTS INC, PETALUMA, CA. More information available from US FCC via Universal Licensing System and Coast Guard Vessel Documentation Center.

Last reported at 2018-Jul-22 16:44 UTC. Time now 2018-Jul-22 17:46 UTC.
Position N 38°06' W 122°16'.

Length 22 m; draft 1.8 m.

Type: Tug. MMSI: 366508420.

Date/timePositionNaut miles runAvg speedWind from/ knotsBaromVisibWave heightAir tempDewpointWater temp
2018-Jul-22 16:44N 38°06' W 122°16'0 0.0
2018-Jul-22 14:52N 38°06' W 122°16'0 0.0
2018-Jul-22 12:46N 38°06' W 122°16'0 0.0
2018-Jul-22 12:30N 38°06' W 122°16'0 0.0
2018-Jul-22 11:11N 38°06' W 122°16'0 0.0
2018-Jul-22 11:00N 38°06' W 122°16'0 0.0
2018-Jul-22 10:29N 38°06' W 122°16'2 5.2
2018-Jul-22 10:00N 38°04' W 122°13'4 9.0
2018-Jul-22 09:30N 38°02' W 122°08'4 8.7
2018-Jul-22 09:00N 38°04' W 122°03'4 7.8
2018-Jul-22 08:30N 38°03' W 121°58'3 7.0
2018-Jul-22 08:00N 38°03' W 121°53'3 3.4
2018-Jul-22 07:16N 38°05' W 121°51'0 0.1
2018-Jul-22 04:28N 38°05' W 121°51'0 0.0
2018-Jul-22 04:00N 38°05' W 121°51'0 0.0
2018-Jul-22 03:30N 38°05' W 121°51'0 0.0
2018-Jul-22 03:00N 38°05' W 121°51'0 0.0
2018-Jul-22 02:30N 38°05' W 121°51'0 0.0
2018-Jul-22 01:58N 38°05' W 121°51'0 0.0
2018-Jul-21 17:37N 38°05' W 121°51'0 2.0
2018-Jul-21 17:30N 38°05' W 121°51'2 4.7
2018-Jul-21 17:00N 38°03' W 121°53'4 8.0
2018-Jul-21 16:30N 38°03' W 121°58'5 8.0
2018-Jul-21 15:54N 38°03' W 122°05'3 8.2
2018-Jul-21 15:30N 38°02' W 122°08'4 7.8
2018-Jul-21 15:00N 38°04' W 122°13'3 5.6
2018-Jul-21 14:29N 38°06' W 122°16'1 1.5
2018-Jul-21 13:30N 38°04' W 122°15'3 5.4
2018-Jul-21 13:00N 38°03' W 122°18'3 5.1
2018-Jul-21 12:30N 38°02' W 122°21'3 5.6
2018-Jul-21 12:00N 38°01' W 122°24'3 5.8
2018-Jul-21 11:30N 37°58' W 122°26'3 5.1
2018-Jul-21 11:00N 37°56' W 122°25'3 5.3
2018-Jul-21 10:30N 37°53' W 122°24'3 5.3
2018-Jul-21 10:00N 37°51' W 122°23'3 5.6
2018-Jul-21 09:30N 37°48' W 122°21'3 5.8
2018-Jul-21 09:00N 37°46' W 122°20'3 5.6
2018-Jul-21 08:30N 37°43' W 122°18'3 5.7
2018-Jul-21 08:00N 37°41' W 122°16'3 5.3
2018-Jul-21 07:30N 37°39' W 122°14'0 0.7
2018-Jul-21 07:00N 37°38' W 122°14'0 0.3
2018-Jul-21 06:29N 37°38' W 122°14'1 1.4
2018-Jul-21 06:00N 37°39' W 122°14'1 1.0
2018-Jul-21 05:30N 37°38' W 122°14'0 0.9
2018-Jul-21 05:00N 37°39' W 122°14'1 1.3
2018-Jul-21 04:30N 37°38' W 122°14'1 1.1
2018-Jul-21 04:00N 37°39' W 122°14'1 2.1
2018-Jul-21 03:30N 37°38' W 122°13'1 1.2
2018-Jul-21 03:00N 37°38' W 122°14'1 1.8
2018-Jul-21 02:30N 37°39' W 122°15'0 0.3
2018-Jul-21 02:00N 37°39' W 122°14'0 0.1
2018-Jul-21 01:30N 37°39' W 122°14'1 1.7
2018-Jul-21 01:00N 37°38' W 122°14'1 2.3
2018-Jul-21 00:30N 37°39' W 122°14'0 0.6
2018-Jul-21 00:00N 37°39' W 122°14'1 2.1
2018-Jul-20 23:30N 37°38' W 122°13'1 2.4
2018-Jul-20 23:00N 37°39' W 122°14'1 1.7
2018-Jul-20 22:30N 37°38' W 122°14'0 0.0
2018-Jul-20 22:00N 37°38' W 122°14'1 1.7
2018-Jul-20 21:30N 37°39' W 122°14'0 0.7
2018-Jul-20 21:00N 37°38' W 122°15'0 0.7
2018-Jul-20 20:29N 37°39' W 122°14'1 1.1
2018-Jul-20 20:00N 37°38' W 122°14'0 0.5
2018-Jul-20 19:30N 37°38' W 122°14'0 0.7
2018-Jul-20 19:00N 37°39' W 122°14'0 0.4
2018-Jul-20 18:30N 37°39' W 122°14'1 1.3
2018-Jul-20 18:00N 37°38' W 122°14'1 1.4
2018-Jul-20 17:30N 37°39' W 122°14'1 1.1
2018-Jul-20 16:57N 37°38' W 122°13'1 2.1
2018-Jul-20 16:30N 37°39' W 122°14'1 1.2
2018-Jul-20 16:00N 37°39' W 122°14'0 0.2
2018-Jul-20 15:30N 37°39' W 122°14'0 0.9
2018-Jul-20 15:00N 37°39' W 122°14'1 1.8
2018-Jul-20 14:30N 37°38' W 122°14'0 0.4
2018-Jul-20 14:00N 37°38' W 122°14'1 1.2
2018-Jul-20 13:29N 37°39' W 122°14'0 1.0
2018-Jul-20 13:00N 37°39' W 122°14'1 1.5
2018-Jul-20 12:30N 37°39' W 122°14'0 0.6
2018-Jul-20 12:00N 37°38' W 122°14'0 0.1
2018-Jul-20 11:30N 37°38' W 122°14'1 1.1
2018-Jul-20 11:00N 37°39' W 122°14'1 1.2
2018-Jul-20 10:30N 37°39' W 122°15'1 1.2
2018-Jul-20 09:58N 37°39' W 122°14'0 1.0
2018-Jul-20 09:29N 37°39' W 122°13'1 1.9
2018-Jul-20 09:00N 37°39' W 122°14'1 2.1
2018-Jul-20 08:30N 37°40' W 122°15'3 5.7
2018-Jul-20 08:00N 37°42' W 122°17'3 5.7
2018-Jul-20 07:30N 37°45' W 122°19'3 5.7
2018-Jul-20 07:00N 37°47' W 122°21'3 5.6
2018-Jul-20 06:30N 37°50' W 122°22'3 5.6
2018-Jul-20 06:00N 37°52' W 122°24'4 7.6
2018-Jul-20 05:30N 37°56' W 122°25'4 7.3
2018-Jul-20 05:00N 37°59' W 122°25'3 6.6
2018-Jul-20 04:30N 38°02' W 122°22'3 5.7
2018-Jul-20 04:00N 38°03' W 122°19'3 5.2
2018-Jul-20 03:30N 38°04' W 122°16'2 3.6
2018-Jul-20 03:00N 38°06' W 122°15'0 0.6
2018-Jul-20 02:30N 38°06' W 122°16'0 0.0
2018-Jul-19 23:37N 38°06' W 122°16'0 0.0
2018-Jul-19 16:13N 38°06' W 122°16'0 0.2
2018-Jul-19 16:00N 38°06' W 122°16'0 0.4
2018-Jul-19 15:30N 38°06' W 122°16'0 0.4
2018-Jul-19 15:00N 38°06' W 122°16'0 0.0
2018-Jul-19 14:30N 38°06' W 122°16'0 0.0
2018-Jul-19 13:30N 38°06' W 122°16'0 0.0
2018-Jul-19 12:59N 38°06' W 122°16'0 0.0
2018-Jul-19 12:24N 38°06' W 122°16'0 0.0
2018-Jul-19 12:00N 38°06' W 122°16'0 0.0
2018-Jul-19 11:30N 38°06' W 122°16'0 0.0
2018-Jul-19 11:00N 38°06' W 122°16'0 0.0
2018-Jul-19 10:30N 38°06' W 122°16'0 0.0
2018-Jul-19 10:00N 38°06' W 122°16'1 1.9
2018-Jul-19 09:30N 38°05' W 122°15'3 6.6
2018-Jul-19 09:00N 38°03' W 122°11'4 6.9
2018-Jul-19 08:25N 38°03' W 122°06'3 7.2
2018-Jul-19 07:59N 38°04' W 122°02'4 7.5
2018-Jul-19 07:30N 38°03' W 121°58'4 7.0
2018-Jul-19 07:00N 38°03' W 121°53'4 6.6
2018-Jul-19 06:23N 38°04' W 121°48'13 0.3
2018-Jul-17 12:13N 38°11' W 121°35'1 5.4
2018-Jul-17 12:00N 38°10' W 121°36'2 4.0
2018-Jul-17 11:30N 38°10' W 121°39'1 2.4
2018-Jul-17 10:59N 38°11' W 121°40'5 6.0
2018-Jul-17 10:07N 38°06' W 121°44'1 7.0
2018-Jul-17 09:55N 38°05' W 121°45'3 6.8
2018-Jul-17 09:30N 38°04' W 121°48'3 6.6
2018-Jul-17 09:00N 38°03' W 121°52'3 6.0
2018-Jul-17 08:30N 38°03' W 121°56'3 6.0
2018-Jul-17 07:58N 38°04' W 122°00'3 5.7
2018-Jul-17 07:30N 38°03' W 122°03'3 5.6
2018-Jul-17 06:54N 38°02' W 122°07'2 4.9
2018-Jul-17 06:28N 38°03' W 122°10'3 5.3
2018-Jul-17 05:58N 38°04' W 122°13'3 6.0
2018-Jul-17 05:30N 38°06' W 122°16'0 0.1
2018-Jul-17 05:00N 38°06' W 122°16'0 0.0
2018-Jul-17 04:24N 38°06' W 122°16'  
Track history (hours):
 
Tides and Currents Weather Stations Pressure Air Temp Water Temp Dewpoint Dewpoint Depression Visibility Wind Speed Wind Dir Waves Ship Positions

Trig Lind

Owner: JERICO PRODUCTS INC, PETALUMA, CA. More information available from US FCC via Universal Licensing System and Coast Guard Vessel Documentation Center.

Last reported at 2018-Jul-22 16:44 UTC. Time now 2018-Jul-22 17:46 UTC.
Position N 38°06' W 122°16'.

Length 22 m; draft 1.8 m.

Type: Tug. MMSI: 366508420.

Date/timePositionNaut miles runAvg speedWind from/ knotsBaromVisibWave heightAir tempDewpointWater temp
2018-Jul-22 16:44N 38°06' W 122°16'0 0.0
2018-Jul-22 14:52N 38°06' W 122°16'0 0.0
2018-Jul-22 12:46N 38°06' W 122°16'0 0.0
2018-Jul-22 12:30N 38°06' W 122°16'0 0.0
2018-Jul-22 11:11N 38°06' W 122°16'0 0.0
2018-Jul-22 11:00N 38°06' W 122°16'0 0.0
2018-Jul-22 10:29N 38°06' W 122°16'2 5.2
2018-Jul-22 10:00N 38°04' W 122°13'4 9.0
2018-Jul-22 09:30N 38°02' W 122°08'4 8.7
2018-Jul-22 09:00N 38°04' W 122°03'4 7.8
2018-Jul-22 08:30N 38°03' W 121°58'3 7.0
2018-Jul-22 08:00N 38°03' W 121°53'3 3.4
2018-Jul-22 07:16N 38°05' W 121°51'0 0.1
2018-Jul-22 04:28N 38°05' W 121°51'0 0.0
2018-Jul-22 04:00N 38°05' W 121°51'0 0.0
2018-Jul-22 03:30N 38°05' W 121°51'0 0.0
2018-Jul-22 03:00N 38°05' W 121°51'0 0.0
2018-Jul-22 02:30N 38°05' W 121°51'0 0.0
2018-Jul-22 01:58N 38°05' W 121°51'0 0.0
2018-Jul-21 17:37N 38°05' W 121°51'0 2.0
2018-Jul-21 17:30N 38°05' W 121°51'2 4.7
2018-Jul-21 17:00N 38°03' W 121°53'4 8.0
2018-Jul-21 16:30N 38°03' W 121°58'5 8.0
2018-Jul-21 15:54N 38°03' W 122°05'3 8.2
2018-Jul-21 15:30N 38°02' W 122°08'4 7.8
2018-Jul-21 15:00N 38°04' W 122°13'3 5.6
2018-Jul-21 14:29N 38°06' W 122°16'1 1.5
2018-Jul-21 13:30N 38°04' W 122°15'3 5.4
2018-Jul-21 13:00N 38°03' W 122°18'3 5.1
2018-Jul-21 12:30N 38°02' W 122°21'3 5.6
2018-Jul-21 12:00N 38°01' W 122°24'3 5.8
2018-Jul-21 11:30N 37°58' W 122°26'3 5.1
2018-Jul-21 11:00N 37°56' W 122°25'3 5.3
2018-Jul-21 10:30N 37°53' W 122°24'3 5.3
2018-Jul-21 10:00N 37°51' W 122°23'3 5.6
2018-Jul-21 09:30N 37°48' W 122°21'3 5.8
2018-Jul-21 09:00N 37°46' W 122°20'3 5.6
2018-Jul-21 08:30N 37°43' W 122°18'3 5.7
2018-Jul-21 08:00N 37°41' W 122°16'3 5.3
2018-Jul-21 07:30N 37°39' W 122°14'0 0.7
2018-Jul-21 07:00N 37°38' W 122°14'0 0.3
2018-Jul-21 06:29N 37°38' W 122°14'1 1.4
2018-Jul-21 06:00N 37°39' W 122°14'1 1.0
2018-Jul-21 05:30N 37°38' W 122°14'0 0.9
2018-Jul-21 05:00N 37°39' W 122°14'1 1.3
2018-Jul-21 04:30N 37°38' W 122°14'1 1.1
2018-Jul-21 04:00N 37°39' W 122°14'1 2.1
2018-Jul-21 03:30N 37°38' W 122°13'1 1.2
2018-Jul-21 03:00N 37°38' W 122°14'1 1.8
2018-Jul-21 02:30N 37°39' W 122°15'0 0.3
2018-Jul-21 02:00N 37°39' W 122°14'0 0.1
2018-Jul-21 01:30N 37°39' W 122°14'1 1.7
2018-Jul-21 01:00N 37°38' W 122°14'1 2.3
2018-Jul-21 00:30N 37°39' W 122°14'0 0.6
2018-Jul-21 00:00N 37°39' W 122°14'1 2.1
2018-Jul-20 23:30N 37°38' W 122°13'1 2.4
2018-Jul-20 23:00N 37°39' W 122°14'1 1.7
2018-Jul-20 22:30N 37°38' W 122°14'0 0.0
2018-Jul-20 22:00N 37°38' W 122°14'1 1.7
2018-Jul-20 21:30N 37°39' W 122°14'0 0.7
2018-Jul-20 21:00N 37°38' W 122°15'0 0.7
2018-Jul-20 20:29N 37°39' W 122°14'1 1.1
2018-Jul-20 20:00N 37°38' W 122°14'0 0.5
2018-Jul-20 19:30N 37°38' W 122°14'0 0.7
2018-Jul-20 19:00N 37°39' W 122°14'0 0.4
2018-Jul-20 18:30N 37°39' W 122°14'1 1.3
2018-Jul-20 18:00N 37°38' W 122°14'1 1.4
2018-Jul-20 17:30N 37°39' W 122°14'1 1.1
2018-Jul-20 16:57N 37°38' W 122°13'1 2.1
2018-Jul-20 16:30N 37°39' W 122°14'1 1.2
2018-Jul-20 16:00N 37°39' W 122°14'0 0.2
2018-Jul-20 15:30N 37°39' W 122°14'0 0.9
2018-Jul-20 15:00N 37°39' W 122°14'1 1.8
2018-Jul-20 14:30N 37°38' W 122°14'0 0.4
2018-Jul-20 14:00N 37°38' W 122°14'1 1.2
2018-Jul-20 13:29N 37°39' W 122°14'0 1.0
2018-Jul-20 13:00N 37°39' W 122°14'1 1.5
2018-Jul-20 12:30N 37°39' W 122°14'0 0.6
2018-Jul-20 12:00N 37°38' W 122°14'0 0.1
2018-Jul-20 11:30N 37°38' W 122°14'1 1.1
2018-Jul-20 11:00N 37°39' W 122°14'1 1.2
2018-Jul-20 10:30N 37°39' W 122°15'1 1.2
2018-Jul-20 09:58N 37°39' W 122°14'0 1.0
2018-Jul-20 09:29N 37°39' W 122°13'1 1.9
2018-Jul-20 09:00N 37°39' W 122°14'1 2.1
2018-Jul-20 08:30N 37°40' W 122°15'3 5.7
2018-Jul-20 08:00N 37°42' W 122°17'3 5.7
2018-Jul-20 07:30N 37°45' W 122°19'3 5.7
2018-Jul-20 07:00N 37°47' W 122°21'3 5.6
2018-Jul-20 06:30N 37°50' W 122°22'3 5.6
2018-Jul-20 06:00N 37°52' W 122°24'4 7.6
2018-Jul-20 05:30N 37°56' W 122°25'4 7.3
2018-Jul-20 05:00N 37°59' W 122°25'3 6.6
2018-Jul-20 04:30N 38°02' W 122°22'3 5.7
2018-Jul-20 04:00N 38°03' W 122°19'3 5.2
2018-Jul-20 03:30N 38°04' W 122°16'2 3.6
2018-Jul-20 03:00N 38°06' W 122°15'0 0.6
2018-Jul-20 02:30N 38°06' W 122°16'0 0.0
2018-Jul-19 23:37N 38°06' W 122°16'0 0.0
2018-Jul-19 16:13N 38°06' W 122°16'0 0.2
2018-Jul-19 16:00N 38°06' W 122°16'0 0.4
2018-Jul-19 15:30N 38°06' W 122°16'0 0.4
2018-Jul-19 15:00N 38°06' W 122°16'0 0.0
2018-Jul-19 14:30N 38°06' W 122°16'0 0.0
2018-Jul-19 13:30N 38°06' W 122°16'0 0.0
2018-Jul-19 12:59N 38°06' W 122°16'0 0.0
2018-Jul-19 12:24N 38°06' W 122°16'0 0.0
2018-Jul-19 12:00N 38°06' W 122°16'0 0.0
2018-Jul-19 11:30N 38°06' W 122°16'0 0.0
2018-Jul-19 11:00N 38°06' W 122°16'0 0.0
2018-Jul-19 10:30N 38°06' W 122°16'0 0.0
2018-Jul-19 10:00N 38°06' W 122°16'1 1.9
2018-Jul-19 09:30N 38°05' W 122°15'3 6.6
2018-Jul-19 09:00N 38°03' W 122°11'4 6.9
2018-Jul-19 08:25N 38°03' W 122°06'3 7.2
2018-Jul-19 07:59N 38°04' W 122°02'4 7.5
2018-Jul-19 07:30N 38°03' W 121°58'4 7.0
2018-Jul-19 07:00N 38°03' W 121°53'4 6.6
2018-Jul-19 06:23N 38°04' W 121°48'13 0.3
2018-Jul-17 12:13N 38°11' W 121°35'1 5.4
2018-Jul-17 12:00N 38°10' W 121°36'2 4.0
2018-Jul-17 11:30N 38°10' W 121°39'1 2.4
2018-Jul-17 10:59N 38°11' W 121°40'5 6.0
2018-Jul-17 10:07N 38°06' W 121°44'1 7.0
2018-Jul-17 09:55N 38°05' W 121°45'3 6.8
2018-Jul-17 09:30N 38°04' W 121°48'3 6.6
2018-Jul-17 09:00N 38°03' W 121°52'3 6.0
2018-Jul-17 08:30N 38°03' W 121°56'3 6.0
2018-Jul-17 07:58N 38°04' W 122°00'3 5.7
2018-Jul-17 07:30N 38°03' W 122°03'3 5.6
2018-Jul-17 06:54N 38°02' W 122°07'2 4.9
2018-Jul-17 06:28N 38°03' W 122°10'3 5.3
2018-Jul-17 05:58N 38°04' W 122°13'3 6.0
2018-Jul-17 05:30N 38°06' W 122°16'0 0.1
2018-Jul-17 05:00N 38°06' W 122°16'0 0.0
2018-Jul-17 04:24N 38°06' W 122°16'  

Dump ship's entire track history